createdAt,value
2023-01-14T00:01:13.855Z,1.00
2023-01-14T00:03:42.778Z,1.00
2023-01-14T00:06:13.848Z,0.00
2023-01-14T00:08:42.995Z,0.00
2023-01-14T00:11:12.573Z,0.00
2023-01-14T00:13:41.888Z,0.80
2023-01-14T00:16:13.750Z,0.00
2023-01-14T00:18:42.617Z,1.00
2023-01-14T00:21:14.767Z,0.00
2023-01-14T00:23:43.688Z,1.00
2023-01-14T00:26:13.717Z,0.00
2023-01-14T00:28:42.612Z,1.40
2023-01-14T00:31:12.254Z,1.00
2023-01-14T00:33:41.381Z,0.40
2023-01-14T00:36:11.402Z,1.00
2023-01-14T00:38:41.612Z,0.60
2023-01-14T00:41:11.891Z,0.80
2023-01-14T00:43:42.871Z,0.60
2023-01-14T00:46:13.077Z,0.00
2023-01-14T00:48:42.219Z,0.40
2023-01-14T00:51:11.115Z,0.20
2023-01-14T00:53:42.080Z,1.00
2023-01-14T00:56:10.964Z,0.00
2023-01-14T00:58:40.024Z,0.20
2023-01-14T01:01:09.352Z,1.00
2023-01-14T01:03:41.416Z,0.00
2023-01-14T01:06:11.503Z,1.00
2023-01-14T01:08:41.695Z,1.00
2023-01-14T01:11:10.668Z,0.00
2023-01-14T01:13:42.691Z,0.00
2023-01-14T01:16:13.813Z,0.00
2023-01-14T01:18:42.750Z,0.00
2023-01-14T01:21:12.839Z,1.00
2023-01-14T01:23:43.636Z,0.00
2023-01-14T01:26:14.371Z,0.00
2023-01-14T01:28:43.227Z,0.00
2023-01-14T01:31:13.336Z,0.20
2023-01-14T01:33:42.191Z,1.00
2023-01-14T01:36:13.375Z,0.00
2023-01-14T01:38:43.777Z,0.00
2023-01-14T01:41:15.319Z,3.00
2023-01-14T01:44:01.004Z,1.00
2023-01-14T01:46:32.977Z,0.00
2023-01-14T01:49:04.279Z,1.00
2023-01-14T01:51:34.787Z,1.00
2023-01-14T01:54:05.143Z,1.00
2023-01-14T01:56:36.380Z,1.00
2023-01-14T01:59:06.905Z,0.00
2023-01-14T02:01:35.833Z,0.60
2023-01-14T02:04:04.759Z,0.00
2023-01-14T02:06:33.921Z,1.00
2023-01-14T02:09:02.910Z,0.20
2023-01-14T02:11:42.011Z,0.00
2023-01-14T02:14:21.543Z,0.00
2023-01-14T02:16:53.658Z,0.00
2023-01-14T02:19:30.940Z,0.00
2023-01-14T02:22:06.565Z,0.00
2023-01-14T02:24:50.825Z,0.40
2023-01-14T02:27:34.985Z,0.40
2023-01-14T02:30:26.578Z,0.20
2023-01-14T02:32:57.687Z,0.00
2023-01-14T02:35:33.194Z,0.80
2023-01-14T02:38:10.020Z,0.00
2023-01-14T02:40:42.454Z,1.00
2023-01-14T02:43:29.306Z,0.40
2023-01-14T02:46:01.272Z,0.00
2023-01-14T02:48:30.110Z,0.00
2023-01-14T02:50:58.875Z,1.00
2023-01-14T02:53:27.643Z,0.00
2023-01-14T02:55:56.708Z,0.60
2023-01-14T02:58:37.618Z,1.00
2023-01-14T03:01:16.778Z,0.20
2023-01-14T03:03:56.122Z,0.00
2023-01-14T03:06:30.872Z,0.60
2023-01-14T03:09:03.328Z,0.00
2023-01-14T03:11:37.875Z,0.00
2023-01-14T03:14:09.941Z,0.00
2023-01-14T03:16:42.796Z,0.00
2023-01-14T03:19:14.170Z,0.00
2023-01-14T03:21:44.220Z,0.60
2023-01-14T03:24:14.854Z,0.20
2023-01-14T03:26:45.332Z,1.00
2023-01-14T03:29:15.811Z,0.80
2023-01-14T03:31:47.576Z,0.40
2023-01-14T03:34:17.476Z,1.00
2023-01-14T03:36:46.466Z,0.00
2023-01-14T03:39:16.912Z,0.00
2023-01-14T03:41:59.630Z,0.00
2023-01-14T03:44:31.625Z,0.00
2023-01-14T03:47:02.580Z,0.00
2023-01-14T03:49:31.408Z,0.20
2023-01-14T03:52:02.868Z,1.00
2023-01-14T03:54:34.094Z,1.00
2023-01-14T03:57:05.960Z,0.80
2023-01-14T03:59:39.016Z,0.00
2023-01-14T04:02:09.439Z,0.40
2023-01-14T04:04:38.565Z,0.00
2023-01-14T04:07:07.869Z,0.00
2023-01-14T04:09:36.677Z,0.00
2023-01-14T04:12:05.663Z,0.80
2023-01-14T04:14:48.561Z,0.40
2023-01-14T04:17:18.813Z,0.00
2023-01-14T04:19:47.613Z,0.20
2023-01-14T04:22:16.511Z,0.00
2023-01-14T04:24:45.301Z,0.20
2023-01-14T04:27:14.098Z,0.00
2023-01-14T04:29:42.884Z,0.80
2023-01-14T04:32:11.680Z,0.00
2023-01-14T04:34:42.174Z,0.00
2023-01-14T04:37:11.039Z,0.60
2023-01-14T04:39:39.836Z,0.00
2023-01-14T04:42:22.232Z,0.00
2023-01-14T04:44:51.428Z,0.60
2023-01-14T04:47:20.193Z,0.20
2023-01-14T04:49:50.480Z,0.00
2023-01-14T04:52:19.331Z,0.40
2023-01-14T04:54:48.443Z,0.20
2023-01-14T04:57:17.212Z,0.20
2023-01-14T04:59:45.967Z,0.40
2023-01-14T05:02:14.888Z,0.00
2023-01-14T05:04:44.087Z,0.00
2023-01-14T05:07:14.357Z,0.00
2023-01-14T05:09:43.163Z,0.00
2023-01-14T05:12:12.280Z,0.00
2023-01-14T05:14:41.013Z,0.00
2023-01-14T05:17:09.764Z,0.00
2023-01-14T05:19:38.560Z,0.00
2023-01-14T05:22:08.665Z,0.80
2023-01-14T05:24:40.153Z,0.00
2023-01-14T05:27:09.004Z,0.00
2023-01-14T05:29:39.613Z,0.00
2023-01-14T05:32:10.691Z,0.00
2023-01-14T05:34:39.458Z,0.00
2023-01-14T05:37:08.514Z,0.40
2023-01-14T05:39:37.610Z,0.00
2023-01-14T05:42:21.639Z,0.00
2023-01-14T05:45:04.077Z,0.00
2023-01-14T05:47:33.079Z,0.80
2023-01-14T05:50:02.031Z,0.20
2023-01-14T05:52:30.853Z,0.00
2023-01-14T05:54:59.965Z,0.00
2023-01-14T05:57:30.355Z,0.00
2023-01-14T05:59:59.393Z,1.00
2023-01-14T06:02:42.139Z,0.00
2023-01-14T06:05:25.059Z,1.00
2023-01-14T06:07:53.962Z,0.00
2023-01-14T06:10:26.228Z,1.00
2023-01-14T06:13:01.427Z,0.00
2023-01-14T06:15:35.354Z,0.00
2023-01-14T06:18:15.190Z,1.00
2023-01-14T06:20:45.409Z,0.00
2023-01-14T06:23:14.955Z,0.20
2023-01-14T06:25:45.258Z,0.00
2023-01-14T06:28:15.903Z,0.20
2023-01-14T06:30:44.701Z,0.20
2023-01-14T06:33:13.555Z,0.00
2023-01-14T06:35:44.495Z,0.00
2023-01-14T06:38:13.640Z,0.00
2023-01-14T06:40:43.344Z,0.00
2023-01-14T06:43:12.089Z,0.00
2023-01-14T06:45:42.371Z,0.00
2023-01-14T06:48:11.214Z,0.00
2023-01-14T06:50:40.124Z,0.00
2023-01-14T06:53:08.863Z,0.00
2023-01-14T06:55:37.689Z,0.00
2023-01-14T06:58:06.929Z,0.00
2023-01-14T07:00:36.239Z,0.00
2023-01-14T07:03:06.521Z,0.00
2023-01-14T07:05:35.612Z,0.00
2023-01-14T07:08:04.436Z,0.00
2023-01-14T07:10:33.296Z,0.60
2023-01-14T07:13:02.104Z,0.80
2023-01-14T07:15:31.285Z,0.00
2023-01-14T07:18:00.107Z,0.00
2023-01-14T07:20:30.325Z,0.00
2023-01-14T07:23:03.675Z,0.80
2023-01-14T07:25:32.711Z,0.40
2023-01-14T07:28:01.683Z,0.00
2023-01-14T07:30:30.672Z,1.00
2023-01-14T07:33:00.924Z,0.20
2023-01-14T07:35:31.637Z,0.00
2023-01-14T07:38:01.024Z,1.00
2023-01-14T07:40:29.888Z,0.40
2023-01-14T07:42:59.219Z,0.00
2023-01-14T07:45:28.524Z,1.00
2023-01-14T07:47:57.592Z,0.00
2023-01-14T07:50:26.339Z,1.00
2023-01-14T07:52:57.020Z,0.80
2023-01-14T07:55:26.041Z,0.60
2023-01-14T07:57:54.832Z,1.00
2023-01-14T08:00:23.865Z,0.00
2023-01-14T08:02:52.681Z,1.00
2023-01-14T08:05:22.802Z,0.00
2023-01-14T08:07:51.580Z,0.00
2023-01-14T08:10:21.894Z,1.80
2023-01-14T08:12:51.373Z,1.00
2023-01-14T08:15:20.672Z,1.00
2023-01-14T08:17:49.621Z,1.00
2023-01-14T08:20:19.045Z,0.20
2023-01-14T08:22:48.173Z,0.40
2023-01-14T08:25:17.096Z,0.00
2023-01-14T08:27:47.305Z,0.80
2023-01-14T08:30:16.667Z,1.00
2023-01-14T08:32:45.509Z,1.00
2023-01-14T08:35:14.309Z,0.00
2023-01-14T08:37:44.039Z,0.00
2023-01-14T08:40:13.564Z,0.60
2023-01-14T08:42:42.357Z,0.00
2023-01-14T08:45:13.107Z,1.00
2023-01-14T08:50:27.695Z,0.00
2023-01-14T08:52:56.744Z,1.80
2023-01-14T08:55:25.552Z,0.00
2023-01-14T08:57:54.373Z,0.00
2023-01-14T09:00:25.421Z,2.60
2023-01-14T09:02:54.288Z,1.00
2023-01-14T09:05:23.254Z,0.40
2023-01-14T09:08:06.974Z,0.00
2023-01-14T09:10:49.416Z,0.80
2023-01-14T09:13:32.207Z,1.00
2023-01-14T09:16:16.032Z,0.60
2023-01-14T09:18:44.820Z,0.40
2023-01-14T09:21:13.715Z,0.60
2023-01-14T09:23:42.930Z,0.00
2023-01-14T09:26:11.686Z,1.00
2023-01-14T09:28:40.514Z,0.00
2023-01-14T09:31:10.719Z,1.00
2023-01-14T09:33:39.767Z,0.00
2023-01-14T09:36:09.221Z,0.00
2023-01-14T09:38:38.286Z,1.00
2023-01-14T09:41:11.069Z,0.00
2023-01-14T09:43:40.310Z,0.00
2023-01-14T09:46:12.769Z,1.20
2023-01-14T09:48:41.653Z,0.00
2023-01-14T09:51:17.237Z,0.80
2023-01-14T09:53:56.043Z,0.60
2023-01-14T09:56:26.537Z,0.00
2023-01-14T09:58:56.466Z,0.00
2023-01-14T10:01:31.199Z,0.00
2023-01-14T10:04:03.669Z,0.00
2023-01-14T10:06:32.470Z,0.00
2023-01-14T10:09:04.222Z,0.00
2023-01-14T10:11:33.973Z,0.00
2023-01-14T10:14:04.776Z,0.00
2023-01-14T10:16:38.690Z,0.00
2023-01-14T10:19:08.499Z,0.00
2023-01-14T10:21:41.415Z,0.20
2023-01-14T10:24:11.364Z,0.00
2023-01-14T10:26:40.152Z,1.00
2023-01-14T10:29:18.201Z,0.00
2023-01-14T10:31:50.471Z,0.00
2023-01-14T10:34:24.194Z,0.00
2023-01-14T10:36:53.005Z,0.00
2023-01-14T10:39:21.862Z,0.00
2023-01-14T10:41:51.878Z,0.00
2023-01-14T10:44:25.470Z,0.00
2023-01-14T10:46:56.681Z,0.00
2023-01-14T10:49:26.593Z,0.00
2023-01-14T10:51:55.674Z,0.20
2023-01-14T10:54:25.719Z,1.00
2023-01-14T10:56:55.271Z,0.00
2023-01-14T10:59:36.315Z,0.00
2023-01-14T11:02:20.512Z,0.00
2023-01-14T11:04:50.498Z,0.00
2023-01-14T11:07:25.779Z,0.20
2023-01-14T11:09:54.579Z,0.20
2023-01-14T11:12:30.579Z,0.00
2023-01-14T11:14:59.361Z,0.00
2023-01-14T11:17:30.435Z,0.00
2023-01-14T11:20:25.152Z,0.00
2023-01-14T11:22:59.436Z,0.00
2023-01-14T11:25:28.259Z,0.00
2023-01-14T11:27:58.533Z,3.40
2023-01-14T11:30:27.367Z,0.00
2023-01-14T11:33:01.025Z,0.00
2023-01-14T11:35:32.302Z,0.00
2023-01-14T11:38:01.229Z,0.00
2023-01-14T11:40:45.911Z,0.00
2023-01-14T11:43:15.549Z,0.00
2023-01-14T11:45:50.522Z,0.00
2023-01-14T11:48:28.156Z,0.00
2023-01-14T11:51:01.139Z,0.00
2023-01-14T11:53:44.731Z,0.00
2023-01-14T11:56:17.243Z,0.00
2023-01-14T11:58:46.534Z,0.00
2023-01-14T12:01:24.657Z,0.00
2023-01-14T12:04:01.100Z,0.20
2023-01-14T12:06:31.742Z,0.00
2023-01-14T12:09:02.924Z,0.00
2023-01-14T12:11:34.773Z,0.80
2023-01-14T12:14:18.471Z,0.00
2023-01-14T12:16:52.416Z,0.00
2023-01-14T12:19:24.750Z,0.00
2023-01-14T12:22:00.233Z,0.40
2023-01-14T12:24:31.849Z,0.00
2023-01-14T12:27:00.668Z,0.00
2023-01-14T12:29:41.968Z,0.00
2023-01-14T12:32:15.272Z,0.00
2023-01-14T12:34:51.644Z,0.40
2023-01-14T12:37:22.584Z,0.00
2023-01-14T12:40:07.930Z,0.00
2023-01-14T12:42:53.464Z,0.00
2023-01-14T12:45:40.247Z,0.00
2023-01-14T12:48:12.080Z,0.00
2023-01-14T12:50:52.345Z,0.00
2023-01-14T12:53:23.404Z,0.00
2023-01-14T12:55:52.236Z,0.00
2023-01-14T12:58:26.058Z,0.00
2023-01-14T13:00:56.104Z,0.00
2023-01-14T13:03:29.171Z,0.00
2023-01-14T13:06:01.848Z,0.00
2023-01-14T13:11:21.381Z,0.00
2023-01-14T13:13:53.591Z,0.00
2023-01-14T13:16:35.983Z,0.00
2023-01-14T13:19:07.073Z,0.00
2023-01-14T13:21:58.886Z,0.00
2023-01-14T13:24:36.743Z,0.00
2023-01-14T13:27:25.425Z,0.00
2023-01-14T13:30:01.265Z,0.00
2023-01-14T13:32:56.783Z,0.00
2023-01-14T13:38:21.402Z,0.00
2023-01-14T13:40:53.454Z,0.00
2023-01-14T13:43:35.716Z,0.00
2023-01-14T13:46:18.173Z,0.00
2023-01-14T13:48:54.921Z,0.00
2023-01-14T13:51:40.003Z,0.00
2023-01-14T13:54:25.719Z,0.00
2023-01-14T13:56:59.353Z,0.00
2023-01-14T13:59:30.889Z,0.00
2023-01-14T14:02:18.693Z,0.00
2023-01-14T14:05:10.118Z,0.00
2023-01-14T14:08:11.731Z,0.00
2023-01-14T14:11:05.681Z,0.00
2023-01-14T14:13:50.828Z,0.00
2023-01-14T14:16:30.706Z,0.00
2023-01-14T14:19:04.543Z,0.00
2023-01-14T14:21:42.876Z,0.00
2023-01-14T14:24:20.507Z,0.00
2023-01-14T14:26:53.047Z,0.00
2023-01-14T14:29:27.714Z,0.00
2023-01-14T14:32:07.070Z,0.00
2023-01-14T14:34:36.381Z,0.00
2023-01-14T14:37:06.726Z,0.00
2023-01-14T14:39:36.811Z,0.00
2023-01-14T14:42:14.046Z,0.00
2023-01-14T14:44:42.926Z,0.00
2023-01-14T14:47:24.121Z,0.00
2023-01-14T14:49:54.780Z,0.00
2023-01-14T14:52:24.261Z,0.00
2023-01-14T14:54:54.664Z,0.00
2023-01-14T14:57:32.296Z,0.00
2023-01-14T15:00:03.835Z,0.00
2023-01-14T15:02:35.493Z,0.00
2023-01-14T15:05:06.038Z,0.00
2023-01-14T15:07:35.842Z,0.00
2023-01-14T15:10:05.580Z,0.00
2023-01-14T15:12:38.448Z,0.00
2023-01-14T15:15:37.532Z,0.00
2023-01-14T15:18:35.348Z,0.00
2023-01-14T15:21:26.570Z,0.00
2023-01-14T15:23:57.441Z,0.00
2023-01-14T15:26:30.201Z,0.00
2023-01-14T15:29:01.279Z,0.00
2023-01-14T15:31:40.289Z,0.00
2023-01-14T15:34:20.503Z,0.00
2023-01-14T15:39:44.025Z,0.80
2023-01-14T15:42:16.256Z,0.00
2023-01-14T15:44:52.637Z,0.00
2023-01-14T15:47:33.935Z,0.00
2023-01-14T15:50:14.146Z,0.00
2023-01-14T15:52:44.233Z,0.00
2023-01-14T15:55:31.763Z,0.00
2023-01-14T15:58:01.573Z,0.00
2023-01-14T16:00:39.431Z,0.00
2023-01-14T16:03:33.411Z,0.00
2023-01-14T16:06:05.732Z,0.00
2023-01-14T16:08:41.533Z,0.00
2023-01-14T16:11:20.458Z,0.00
2023-01-14T16:13:53.450Z,0.00
2023-01-14T16:16:27.580Z,0.00
2023-01-14T16:19:04.363Z,0.00
2023-01-14T16:21:34.512Z,0.00
2023-01-14T16:24:08.331Z,0.20
2023-01-14T16:26:37.663Z,0.00
2023-01-14T16:29:08.306Z,0.00
2023-01-14T16:31:39.847Z,0.00
2023-01-14T16:34:10.291Z,0.00
2023-01-14T16:36:45.187Z,0.00
2023-01-14T16:39:16.657Z,0.00
2023-01-14T16:42:07.937Z,0.00
2023-01-14T16:44:37.570Z,0.00
2023-01-14T16:47:17.920Z,0.00
2023-01-14T16:49:48.268Z,0.00
2023-01-14T16:52:22.847Z,0.00
2023-01-14T16:54:56.838Z,0.00
2023-01-14T16:57:28.154Z,0.00
2023-01-14T16:59:57.214Z,0.00
2023-01-14T17:02:37.538Z,0.00
2023-01-14T17:05:19.979Z,0.00
2023-01-14T17:07:51.603Z,0.00
2023-01-14T17:10:30.540Z,0.00
2023-01-14T17:13:03.044Z,0.00
2023-01-14T17:15:34.838Z,0.00
2023-01-14T17:18:08.028Z,0.00
2023-01-14T17:20:38.972Z,0.00
2023-01-14T17:23:10.465Z,0.00
2023-01-14T17:25:48.056Z,1.00
2023-01-14T17:28:38.889Z,0.00
2023-01-14T17:31:09.710Z,0.20
2023-01-14T17:33:45.064Z,0.00
2023-01-14T17:36:21.077Z,0.80
2023-01-14T17:38:53.622Z,0.00
2023-01-14T17:41:57.526Z,0.00
2023-01-14T17:44:28.014Z,0.00
2023-01-14T17:46:58.808Z,0.00
2023-01-14T17:49:42.417Z,0.00
2023-01-14T17:52:17.196Z,0.00
2023-01-14T17:54:49.536Z,0.00
2023-01-14T17:57:23.605Z,0.40
2023-01-14T17:59:56.461Z,1.00
2023-01-14T18:02:31.344Z,0.00
2023-01-14T18:05:05.488Z,0.00
2023-01-14T18:07:37.521Z,0.40
2023-01-14T18:10:08.386Z,0.00
2023-01-14T18:12:41.431Z,0.00
2023-01-14T18:15:12.623Z,0.00
2023-01-14T18:17:59.150Z,0.00
2023-01-14T18:20:33.423Z,0.00
2023-01-14T18:23:03.836Z,0.00
2023-01-14T18:25:43.436Z,0.80
2023-01-14T18:28:13.637Z,0.40
2023-01-14T18:30:47.784Z,0.00
2023-01-14T18:33:19.446Z,0.00
2023-01-14T18:35:52.369Z,0.00
2023-01-14T18:38:22.110Z,0.00
2023-01-14T18:40:51.169Z,0.00
2023-01-14T18:43:28.662Z,0.40
2023-01-14T18:46:00.270Z,0.20
2023-01-14T18:48:32.692Z,0.60
2023-01-14T18:51:14.032Z,0.40
2023-01-14T18:53:43.410Z,0.80
2023-01-14T18:56:18.221Z,0.80
2023-01-14T18:58:48.762Z,1.40
2023-01-14T19:01:22.381Z,0.60
2023-01-14T19:03:53.992Z,2.20
2023-01-14T19:06:24.280Z,1.20
2023-01-14T19:08:53.921Z,11.00
2023-01-14T19:11:36.719Z,5.40
2023-01-14T19:14:07.616Z,3.60
2023-01-14T19:16:36.836Z,5.40
2023-01-14T19:19:06.318Z,5.20
2023-01-14T19:21:37.435Z,3.80
2023-01-14T19:24:15.595Z,6.40
2023-01-14T19:26:44.843Z,3.60
2023-01-14T19:29:16.385Z,5.80
2023-01-14T19:31:45.924Z,21.00
2023-01-14T19:34:17.851Z,9.20
2023-01-14T19:36:50.701Z,12.00
2023-01-14T19:39:21.168Z,21.80
2023-01-14T19:41:51.426Z,24.20
2023-01-14T19:44:25.484Z,20.20
2023-01-14T19:46:58.165Z,14.80
2023-01-14T19:49:27.639Z,3.00
2023-01-14T19:52:02.991Z,2.20
2023-01-14T19:54:33.880Z,3.00
2023-01-14T19:57:05.025Z,6.80
2023-01-14T19:59:34.696Z,5.00
2023-01-14T20:02:05.732Z,1.40
2023-01-14T20:04:36.168Z,7.00
2023-01-14T20:07:08.994Z,5.00
2023-01-14T20:09:37.871Z,6.00
2023-01-14T20:12:08.922Z,5.80
2023-01-14T20:14:39.359Z,0.00
2023-01-14T20:17:10.112Z,0.40
2023-01-14T20:19:41.951Z,0.20
2023-01-14T20:25:00.631Z,0.00
2023-01-14T20:27:32.542Z,0.00
2023-01-14T20:30:01.743Z,0.40
2023-01-14T20:32:37.044Z,0.60
2023-01-14T20:35:09.297Z,1.20
2023-01-14T20:37:41.194Z,0.00
2023-01-14T20:40:11.252Z,0.00
2023-01-14T20:42:40.725Z,0.00
2023-01-14T20:45:12.405Z,0.00
2023-01-14T20:48:01.784Z,0.00
2023-01-14T20:50:31.027Z,0.00
2023-01-14T20:53:04.293Z,0.00
2023-01-14T20:55:34.676Z,0.40
2023-01-14T20:58:10.322Z,0.00
2023-01-14T21:00:39.536Z,0.00
2023-01-14T21:03:26.720Z,0.00
2023-01-14T21:05:59.330Z,0.00
2023-01-14T21:08:32.417Z,0.00
2023-01-14T21:11:04.484Z,0.00
2023-01-14T21:13:49.585Z,0.00
2023-01-14T21:16:33.008Z,0.00
2023-01-14T21:19:17.097Z,0.00
2023-01-14T21:21:59.827Z,0.00
2023-01-14T21:24:30.125Z,0.00
2023-01-14T21:27:02.078Z,0.00
2023-01-14T21:29:33.301Z,0.00
2023-01-14T21:32:06.337Z,0.00
2023-01-14T21:34:37.088Z,1.00
2023-01-14T21:37:05.988Z,0.40
2023-01-14T21:39:36.622Z,1.00
2023-01-14T21:42:24.084Z,1.40
2023-01-14T21:45:34.383Z,1.00
2023-01-14T21:47:42.594Z,1.00
2023-01-14T21:50:14.900Z,1.80
2023-01-14T21:52:44.071Z,1.00
2023-01-14T21:55:15.642Z,1.00
2023-01-14T21:57:44.645Z,1.00
2023-01-14T22:00:15.586Z,1.00
2023-01-14T22:02:44.484Z,1.00
2023-01-14T22:05:16.786Z,1.00
2023-01-14T22:07:52.594Z,3.00
2023-01-14T22:10:22.859Z,0.80
2023-01-14T22:12:54.872Z,1.00
2023-01-14T22:15:25.833Z,0.40
2023-01-14T22:17:55.705Z,6.00
2023-01-14T22:20:25.635Z,7.60
2023-01-14T22:22:55.322Z,9.80
2023-01-14T22:25:33.064Z,5.20
2023-01-14T22:28:03.240Z,5.60
2023-01-14T22:30:32.864Z,4.00
2023-01-14T22:33:03.128Z,4.00
2023-01-14T22:35:33.025Z,14.20
2023-01-14T22:38:04.964Z,3.80
2023-01-14T22:40:35.858Z,3.80
2023-01-14T22:43:08.419Z,3.20
2023-01-14T22:45:45.529Z,4.00
2023-01-14T22:48:14.427Z,0.60
2023-01-14T22:50:43.563Z,0.80
2023-01-14T22:53:13.668Z,3.00
2023-01-14T22:55:45.297Z,3.00
2023-01-14T22:58:19.548Z,1.00
2023-01-14T23:00:50.560Z,0.00
2023-01-14T23:03:20.737Z,2.20
2023-01-14T23:05:51.131Z,0.20
2023-01-14T23:08:25.989Z,0.00
2023-01-14T23:14:00.151Z,5.00
2023-01-14T23:16:44.552Z,0.00
2023-01-14T23:19:17.679Z,0.00
2023-01-14T23:22:00.464Z,0.00
2023-01-14T23:24:30.035Z,0.00
2023-01-14T23:26:59.809Z,0.80
2023-01-14T23:29:30.319Z,0.00
2023-01-14T23:31:59.238Z,0.00
2023-01-14T23:34:28.091Z,0.00
2023-01-14T23:36:57.336Z,0.00
2023-01-14T23:39:26.172Z,0.00
2023-01-14T23:42:25.096Z,0.00
2023-01-14T23:44:45.020Z,0.00
2023-01-14T23:47:13.954Z,0.00
2023-01-14T23:49:42.851Z,0.00
2023-01-14T23:52:12.840Z,0.00
2023-01-14T23:54:41.966Z,0.00
2023-01-14T23:57:11.108Z,0.00
2023-01-14T23:59:40.292Z,0.00
